Погода Эль-Авамийяна 2 недели

Табук, Саудовская Аравия

22 июля-04 августа
  • 22июля
    Сегодня
    +31°
    +46°
    Ясно и безоблачно
    ВремяПогодаТемператураВлажностьДавлениеВетер, м/сВероятность осадков
    00:00Ясно и безоблачно+34°C39 %745 мм3.4 м/с0 %
    03:00Ясно и безоблачно+33°C33 %745 мм3.8 м/с0 %
    06:00Ясно и безоблачно+33°C30 %746 мм3.9 м/с0 %
    09:00Ясно и безоблачно+42°C22 %747 мм5.2 м/с0 %
    12:00Ясно и безоблачно+45°C15 %746 мм6.3 м/с0 %
    15:00Ясно и безоблачно+44°C18 %746 мм7.1 м/с0 %
    18:00Ясно и безоблачно+40°C35 %745 мм4.2 м/с0 %
    21:00Ясно и безоблачно+36°C50 %747 мм2.0 м/с0 %
  • 23июля
    Вторник
    +31°
    +46°
    Ясно и безоблачно
    ВремяПогодаТемператураВлажностьДавлениеВетер, м/сВероятность осадков
    00:00Ясно и безоблачно+33°C47 %746 мм3.6 м/с0 %
    03:00Ясно и безоблачно+32°C38 %746 мм4.2 м/с0 %
    06:00Ясно и безоблачно+32°C29 %747 мм5.0 м/с0 %
    09:00Ясно и безоблачно+41°C15 %747 мм5.3 м/с0 %
    12:00Ясно и безоблачно+45°C12 %746 мм7.9 м/с0 %
    15:00Ясно и безоблачно+44°C14 %745 мм7.7 м/с0 %
    18:00Ясно и безоблачно+40°C32 %745 мм3.8 м/с0 %
    21:00Ясно и безоблачно+36°C46 %745 мм1.6 м/с0 %
  • 24июля
    Среда
    +31°
    +46°
    Ясно и безоблачно
    ВремяПогодаТемператураВлажностьДавлениеВетер, м/сВероятность осадков
    00:00Ясно и безоблачно+33°C41 %745 мм3.2 м/с0 %
    03:00Ясно и безоблачно+32°C29 %744 мм4.3 м/с0 %
    06:00Ясно и безоблачно+32°C20 %745 мм5.0 м/с0 %
    09:00Ясно и безоблачно+41°C15 %745 мм4.8 м/с0 %
    12:00Ясно и безоблачно+46°C13 %744 мм6.8 м/с0 %
    15:00Ясно и безоблачно+44°C18 %742 мм7.2 м/с0 %
    18:00Небольшая облачность+40°C36 %742 мм5.2 м/с0 %
    21:00Ясно и безоблачно+36°C50 %743 мм0.4 м/с0 %
  • 25июля
    Четверг
    +31°
    +45°
    Ясно и безоблачно
    ВремяПогодаТемператураВлажностьДавлениеВетер, м/сВероятность осадков
    00:00Ясно и безоблачно+33°C43 %742 мм3.5 м/с0 %
    03:00Ясно и безоблачно+32°C30 %742 мм4.3 м/с0 %
    06:00Ясно и безоблачно+33°C21 %743 мм4.9 м/с0 %
    09:00Ясно и безоблачно+42°C14 %744 мм7.3 м/с0 %
    12:00Ясно и безоблачно+45°C15 %743 мм9.3 м/с0 %
    15:00Ясно и безоблачно+45°C16 %743 мм8.3 м/с0 %
    18:00Ясно и безоблачно+40°C37 %742 мм4.0 м/с0 %
    21:00Ясно и безоблачно+36°C46 %743 мм1.1 м/с0 %
  • 26июля
    Пятница
    +33°
    +46°
    Ясно и безоблачно
    ВремяПогодаТемператураВлажностьДавлениеВетер, м/сВероятность осадков
    00:00Ясно и безоблачно+34°C37 %743 мм3.2 м/с0 %
    03:00Ясно и безоблачно+32°C26 %743 мм4.0 м/с0 %
    06:00Ясно и безоблачно+33°C17 %744 мм5.3 м/с0 %
    09:00Ясно и безоблачно+41°C14 %745 мм5.8 м/с0 %
    12:00Ясно и безоблачно+45°C20 %745 мм8.0 м/с0 %
    15:00Ясно и безоблачно+44°C23 %744 мм8.0 м/с0 %
    18:00Ясно и безоблачно+41°C34 %744 мм4.2 м/с0 %
    21:00Ясно и безоблачно+37°C39 %745 мм2.9 м/с0 %
Мы используем cookies
Соглашаюсь